Archival Weather

Chicago O'Hare International

Chicago, Illinois (KORD)

Report from: Friday, May 26, 2023 2:51 PM CDT
Current time: Friday, April 19, 2024 3:54 AM CDT

Current weather – Weather history – Daily summaries
Weather forecast

Temperature20.0°C (68.0°F)
Dew point-1.1°C (30.0°F)
Winds 9 kts (4.6 m/s, 10.4 mph) East-Northeast (60°)
Visibility10 mi. (16.1 km)
Clouds Few clouds 25,000 ft. (7,620 m)
Altimeter30.32 in.Hg (1027 mB)
Relative humidity24 %
Density altitude219 ft. (67 m)
Sea-level pressure102.7 kPa (1027 mB, 30.32 in.Hg)
Remarks Automated weather observing station with precipitation discriminator
Flight conditions Visual Meteorological Conditions
Raw dataKORD 261951Z 06009KT 10SM FEW250 20/M01 A3032 RMK AO2 SLP269 T02001011
An error has occurred. This application may no longer respond until reloaded. Reload 🗙